Time;durP1;ratioP1;P1;durP2;ratioP2;P2;SDS_P1;SDS_P2;PMS_P1;PMS_P2;Temp;Humidity;BMP_temperature;BMP_pressure;BME280_temperature;BME280_humidity;BME280_pressure;Samples;Min_cycle;Max_cycle;Signal;HPM_P1;HPM_P2
2023/09/26 00:01:39;;;;;;;2.15;1.95;;;;;;;;;;5115305;27;20203;-92
2023/09/26 00:04:07;;;;;;;1.85;1.75;;;;;;;;;;5114976;27;20692;-92
2023/09/26 00:06:36;;;;;;;1.90;1.80;;;;;;;;;;5115194;27;20252;-92
2023/09/26 00:09:05;;;;;;;1.73;1.63;;;;;;;;;;5114775;27;20262;-91
2023/09/26 00:11:34;;;;;;;2.28;2.08;;;;;;;;;;5114845;28;20204;-92
2023/09/26 00:14:04;;;;;;;2.47;1.80;;;;;;;;;;5114456;28;20206;-92
2023/09/26 00:16:31;;;;;;;3.00;1.80;;;;;;;;;;5114772;28;20283;-93
2023/09/26 00:18:59;;;;;;;1.60;1.50;;;;;;;;;;5113561;28;20278;-92
2023/09/26 00:21:28;;;;;;;1.60;1.50;;;;;;;;;;5114771;28;20286;-91
2023/09/26 00:23:57;;;;;;;2.20;1.70;;;;;;;;;;5114867;28;20223;-91
2023/09/26 00:26:25;;;;;;;1.65;1.55;;;;;;;;;;5115451;28;20274;-92
2023/09/26 00:28:53;;;;;;;1.35;1.25;;;;;;;;;;5118327;28;20580;-93
2023/09/26 00:31:21;;;;;;;1.50;1.40;;;;;;;;;;5129049;28;20263;-93
2023/09/26 00:33:48;;;;;;;1.80;1.70;;;;;;;;;;5117704;28;20191;-95
2023/09/26 00:36:16;;;;;;;1.80;1.70;;;;;;;;;;5115028;28;20283;-93
2023/09/26 00:38:43;;;;;;;1.60;1.50;;;;;;;;;;5114608;28;20215;-94
2023/09/26 00:41:12;;;;;;;1.35;1.30;;;;;;;;;;5114514;28;20287;-93
2023/09/26 00:43:40;;;;;;;1.95;1.63;;;;;;;;;;5114300;28;20275;-92
2023/09/26 00:46:08;;;;;;;1.60;1.50;;;;;;;;;;5114810;28;20283;-93
2023/09/26 00:48:38;;;;;;;1.63;1.50;;;;;;;;;;5114544;28;20640;-91
2023/09/26 00:51:07;;;;;;;1.40;1.30;;;;;;;;;;5114237;28;20729;-93
2023/09/26 00:53:35;;;;;;;3.45;1.70;;;;;;;;;;5113877;28;20252;-92
2023/09/26 00:56:02;;;;;;;1.50;1.40;;;;;;;;;;5114232;28;20630;-91
2023/09/26 00:58:32;;;;;;;1.60;1.50;;;;;;;;;;5114384;28;20290;-92
2023/09/26 01:01:00;;;;;;;1.58;1.48;;;;;;;;;;5113993;28;20192;-93
2023/09/26 01:03:27;;;;;;;2.08;1.90;;;;;;;;;;5114132;28;20192;-93
2023/09/26 01:05:55;;;;;;;1.52;1.42;;;;;;;;;;5113799;28;20230;-93
2023/09/26 01:08:23;;;;;;;1.48;1.38;;;;;;;;;;5113844;28;20283;-92
2023/09/26 01:10:50;;;;;;;1.58;1.48;;;;;;;;;;5114199;28;20210;-92
2023/09/26 01:13:18;;;;;;;1.75;1.65;;;;;;;;;;5113839;28;20203;-93
2023/09/26 01:15:47;;;;;;;2.00;1.90;;;;;;;;;;5113561;28;20238;-92
2023/09/26 01:18:17;;;;;;;2.08;1.90;;;;;;;;;;5113220;28;20324;-91
2023/09/26 01:20:46;;;;;;;2.95;1.27;;;;;;;;;;5113999;28;20203;-91
2023/09/26 01:23:15;;;;;;;1.83;1.73;;;;;;;;;;5114458;28;20200;-93
2023/09/26 01:25:45;;;;;;;1.50;1.40;;;;;;;;;;5114556;27;20223;-92
2023/09/26 01:28:19;;;;;;;1.65;1.55;;;;;;;;;;5113828;27;20207;-92
2023/09/26 01:30:48;;;;;;;2.17;1.50;;;;;;;;;;5113664;28;20287;-91
2023/09/26 01:33:19;;;;;;;1.85;1.75;;;;;;;;;;5116455;28;20208;-94
2023/09/26 01:35:46;;;;;;;1.88;1.77;;;;;;;;;;5119642;27;20712;-93
2023/09/26 01:38:14;;;;;;;2.83;2.20;;;;;;;;;;5113359;28;20230;-92
2023/09/26 01:40:42;;;;;;;3.05;1.90;;;;;;;;;;5113547;28;20637;-93
2023/09/26 01:43:11;;;;;;;2.45;2.00;;;;;;;;;;5113334;27;20199;-91
2023/09/26 01:45:38;;;;;;;1.85;1.75;;;;;;;;;;5113235;28;20233;-92
2023/09/26 01:48:09;;;;;;;5.55;2.20;;;;;;;;;;5113231;27;20195;-92
2023/09/26 01:50:36;;;;;;;2.20;2.10;;;;;;;;;;5113455;28;20206;-93
2023/09/26 01:53:04;;;;;;;2.60;1.95;;;;;;;;;;5113269;28;20195;-92
2023/09/26 01:55:32;;;;;;;2.40;2.20;;;;;;;;;;5113425;28;20283;-91
2023/09/26 01:57:59;;;;;;;3.08;1.90;;;;;;;;;;5113224;28;20673;-91
2023/09/26 02:00:29;;;;;;;2.60;2.40;;;;;;;;;;5113187;28;20771;-92
2023/09/26 02:02:57;;;;;;;2.72;2.08;;;;;;;;;;5113211;27;20204;-92
2023/09/26 02:05:25;;;;;;;2.00;1.90;;;;;;;;;;5112989;27;20216;-92
2023/09/26 02:07:52;;;;;;;2.15;1.92;;;;;;;;;;5112925;27;20657;-91
2023/09/26 02:10:20;;;;;;;2.05;1.95;;;;;;;;;;5113027;27;20219;-91
2023/09/26 02:12:51;;;;;;;1.92;1.80;;;;;;;;;;5112932;27;20214;-92
2023/09/26 02:15:18;;;;;;;2.00;1.90;;;;;;;;;;5113066;28;20291;-92
2023/09/26 02:17:48;;;;;;;1.75;1.50;;;;;;;;;;5115907;27;20294;-92
2023/09/26 02:20:19;;;;;;;2.17;2.08;;;;;;;;;;5113030;27;20243;-92
2023/09/26 02:22:50;;;;;;;1.77;1.67;;;;;;;;;;5113236;27;20196;-93
2023/09/26 02:25:19;;;;;;;1.83;1.50;;;;;;;;;;5113610;28;20310;-92
2023/09/26 02:27:47;;;;;;;2.25;1.52;;;;;;;;;;5113318;28;20665;-92
2023/09/26 02:30:17;;;;;;;1.40;1.30;;;;;;;;;;5112568;28;20211;-92
2023/09/26 02:32:46;;;;;;;2.60;2.42;;;;;;;;;;5113207;27;20195;-92
2023/09/26 02:35:17;;;;;;;1.40;1.30;;;;;;;;;;5113034;27;20288;-92
2023/09/26 02:37:45;;;;;;;1.60;1.45;;;;;;;;;;5112844;28;20222;-91
2023/09/26 02:40:14;;;;;;;1.45;1.35;;;;;;;;;;5112788;27;20298;-92
2023/09/26 02:42:43;;;;;;;1.63;1.52;;;;;;;;;;5115464;28;20211;-92
2023/09/26 02:45:12;;;;;;;4.53;1.90;;;;;;;;;;5116706;28;20227;-91
2023/09/26 02:47:40;;;;;;;1.85;1.75;;;;;;;;;;5116894;28;20595;-90
2023/09/26 02:50:11;;;;;;;1.50;1.40;;;;;;;;;;5116249;28;20223;-90
2023/09/26 02:52:40;;;;;;;1.60;1.50;;;;;;;;;;5116571;28;20263;-90
2023/09/26 02:55:09;;;;;;;1.88;1.77;;;;;;;;;;5116618;28;20200;-91
2023/09/26 02:57:37;;;;;;;1.40;1.33;;;;;;;;;;5116416;28;20661;-90
2023/09/26 03:00:14;;;;;;;2.63;1.92;;;;;;;;;;5116317;28;20230;-90
2023/09/26 03:02:42;;;;;;;1.73;1.63;;;;;;;;;;5116201;28;20203;-92
2023/09/26 03:05:11;;;;;;;2.00;1.90;;;;;;;;;;5116195;28;20222;-91
2023/09/26 03:07:39;;;;;;;1.70;1.60;;;;;;;;;;5116358;28;20202;-92
2023/09/26 03:10:09;;;;;;;2.33;2.03;;;;;;;;;;5116044;28;20219;-93
2023/09/26 03:12:36;;;;;;;1.90;1.75;;;;;;;;;;5115889;28;20230;-92
2023/09/26 03:15:06;;;;;;;2.20;2.00;;;;;;;;;;5115907;28;20314;-93
2023/09/26 03:17:33;;;;;;;1.60;1.50;;;;;;;;;;5115977;28;20567;-92
2023/09/26 03:20:02;;;;;;;2.08;1.92;;;;;;;;;;5116007;28;20219;-92
2023/09/26 03:22:31;;;;;;;2.03;1.92;;;;;;;;;;5116122;28;20227;-93
2023/09/26 03:24:59;;;;;;;2.30;2.10;;;;;;;;;;5116559;28;20199;-93
2023/09/26 03:27:26;;;;;;;3.63;1.63;;;;;;;;;;5116788;28;20203;-91
2023/09/26 03:29:54;;;;;;;2.75;1.48;;;;;;;;;;5115789;27;20595;-92
2023/09/26 03:32:21;;;;;;;2.35;1.65;;;;;;;;;;5115990;28;20673;-93
2023/09/26 03:34:49;;;;;;;2.28;2.17;;;;;;;;;;5116746;28;20198;-92
2023/09/26 03:37:17;;;;;;;1.83;1.73;;;;;;;;;;5115644;28;20204;-92
2023/09/26 03:39:48;;;;;;;1.52;1.42;;;;;;;;;;5115620;28;20633;-92
2023/09/26 03:42:16;;;;;;;2.13;2.03;;;;;;;;;;5115553;28;20206;-93
2023/09/26 03:44:44;;;;;;;1.85;1.75;;;;;;;;;;5115527;27;20210;-92
2023/09/26 03:47:11;;;;;;;4.75;1.90;;;;;;;;;;5115354;28;20635;-92
2023/09/26 03:49:39;;;;;;;1.70;1.60;;;;;;;;;;5115422;28;20223;-93
2023/09/26 03:52:07;;;;;;;1.25;1.25;;;;;;;;;;5106446;27;20584;-91
2023/09/26 03:54:37;;;;;;;1.90;1.80;;;;;;;;;;5100978;28;20222;-92
2023/09/26 03:57:06;;;;;;;1.90;1.80;;;;;;;;;;5101284;28;20591;-92
2023/09/26 03:59:34;;;;;;;1.70;1.58;;;;;;;;;;5101440;28;20316;-92
2023/09/26 04:02:01;;;;;;;2.28;1.70;;;;;;;;;;5101900;28;20204;-92
2023/09/26 04:04:31;;;;;;;1.80;1.70;;;;;;;;;;5113950;28;20263;-91
2023/09/26 04:06:59;;;;;;;1.60;1.50;;;;;;;;;;5129723;28;20220;-90
2023/09/26 04:09:26;;;;;;;1.73;1.63;;;;;;;;;;5130299;28;20956;-90
2023/09/26 04:11:54;;;;;;;2.28;1.48;;;;;;;;;;5118890;28;20274;-91
2023/09/26 04:14:25;;;;;;;1.65;1.55;;;;;;;;;;5102282;28;20234;-90
2023/09/26 04:16:52;;;;;;;1.67;1.58;;;;;;;;;;5102211;28;20215;-91
2023/09/26 04:19:20;;;;;;;1.33;1.25;;;;;;;;;;5102483;28;20223;-91
2023/09/26 04:21:47;;;;;;;1.25;1.23;;;;;;;;;;5102197;28;20196;-92
2023/09/26 04:24:15;;;;;;;1.38;1.30;;;;;;;;;;5102481;28;20204;-90
2023/09/26 04:26:43;;;;;;;1.40;1.35;;;;;;;;;;5101451;28;20247;-90
2023/09/26 04:29:11;;;;;;;1.20;1.20;;;;;;;;;;5101637;28;20225;-91
2023/09/26 04:31:40;;;;;;;1.50;1.40;;;;;;;;;;5101694;28;20207;-91
2023/09/26 04:34:07;;;;;;;1.30;1.20;;;;;;;;;;5101431;28;20291;-93
2023/09/26 04:36:35;;;;;;;1.52;1.42;;;;;;;;;;5101072;28;20577;-90
2023/09/26 04:39:03;;;;;;;2.28;1.20;;;;;;;;;;5105557;28;20242;-92
2023/09/26 04:41:30;;;;;;;1.50;1.40;;;;;;;;;;5105700;28;20199;-91
2023/09/26 04:43:58;;;;;;;2.38;1.70;;;;;;;;;;5104558;28;20208;-91
2023/09/26 04:46:25;;;;;;;1.50;1.40;;;;;;;;;;5108412;28;20224;-92
2023/09/26 04:51:36;;;;;;;1.30;1.20;;;;;;;;;;5103787;28;20299;-91
2023/09/26 04:54:04;;;;;;;1.40;1.30;;;;;;;;;;5101637;28;20192;-92
2023/09/26 04:56:31;;;;;;;1.40;1.30;;;;;;;;;;5113476;28;20694;-90
2023/09/26 04:58:59;;;;;;;1.60;1.50;;;;;;;;;;5103104;28;20223;-91
2023/09/26 05:01:27;;;;;;;1.70;1.60;;;;;;;;;;5102689;28;20200;-91
2023/09/26 05:03:56;;;;;;;1.38;1.30;;;;;;;;;;5102380;28;21521;-92
2023/09/26 05:06:24;;;;;;;1.50;1.40;;;;;;;;;;5100686;28;20315;-92
2023/09/26 05:08:51;;;;;;;1.77;1.67;;;;;;;;;;5102402;28;20249;-93
2023/09/26 05:11:19;;;;;;;1.58;1.48;;;;;;;;;;5103796;28;21328;-91
2023/09/26 05:13:47;;;;;;;1.70;1.60;;;;;;;;;;5101894;28;20200;-92
2023/09/26 05:16:15;;;;;;;1.63;1.52;;;;;;;;;;5101627;28;20204;-92
2023/09/26 05:18:43;;;;;;;1.40;1.30;;;;;;;;;;5101636;28;20885;-92
2023/09/26 05:21:12;;;;;;;1.13;1.08;;;;;;;;;;5100697;28;20307;-92
2023/09/26 05:23:40;;;;;;;1.50;1.40;;;;;;;;;;5104601;28;20203;-89
2023/09/26 05:26:08;;;;;;;1.45;1.33;;;;;;;;;;5106604;28;20561;-92
2023/09/26 05:28:36;;;;;;;1.70;1.60;;;;;;;;;;5100114;28;20226;-91
2023/09/26 05:31:04;;;;;;;1.52;1.42;;;;;;;;;;5110422;28;20309;-91
2023/09/26 05:33:32;;;;;;;2.00;1.90;;;;;;;;;;5101295;28;20200;-91
2023/09/26 05:35:59;;;;;;;2.60;2.40;;;;;;;;;;5101846;28;20196;-91
2023/09/26 05:38:29;;;;;;;1.70;1.60;;;;;;;;;;5103135;28;20206;-90
2023/09/26 05:40:56;;;;;;;1.60;1.50;;;;;;;;;;5104988;28;20200;-91
2023/09/26 05:43:24;;;;;;;1.85;1.75;;;;;;;;;;5101095;28;20199;-93
2023/09/26 05:45:52;;;;;;;1.50;1.40;;;;;;;;;;5102156;28;20303;-91
2023/09/26 05:48:20;;;;;;;1.63;1.52;;;;;;;;;;5102831;28;20223;-91
2023/09/26 05:50:47;;;;;;;1.20;1.20;;;;;;;;;;5103072;28;20218;-91
2023/09/26 05:53:15;;;;;;;1.40;1.30;;;;;;;;;;5111250;28;20665;-91
2023/09/26 05:55:44;;;;;;;1.20;1.20;;;;;;;;;;5113165;28;20203;-91
2023/09/26 05:58:12;;;;;;;2.13;1.92;;;;;;;;;;5115381;28;20203;-91
2023/09/26 06:00:39;;;;;;;1.85;1.75;;;;;;;;;;5124477;27;20234;-91
2023/09/26 06:03:07;;;;;;;1.63;1.52;;;;;;;;;;5121881;27;20285;-93
2023/09/26 06:05:37;;;;;;;2.53;2.13;;;;;;;;;;5116443;27;20267;-92
2023/09/26 06:08:05;;;;;;;3.03;2.72;;;;;;;;;;5113366;28;20223;-92
2023/09/26 06:10:33;;;;;;;2.20;2.00;;;;;;;;;;5114615;27;20223;-93
2023/09/26 06:13:02;;;;;;;3.70;2.30;;;;;;;;;;5117588;28;20223;-93
2023/09/26 06:15:30;;;;;;;1.77;1.67;;;;;;;;;;5113264;27;20295;-94
2023/09/26 06:17:59;;;;;;;2.63;2.42;;;;;;;;;;5116619;27;20292;-94
2023/09/26 06:20:28;;;;;;;2.45;2.28;;;;;;;;;;5117062;27;20215;-92
2023/09/26 06:22:56;;;;;;;2.60;2.40;;;;;;;;;;5117335;27;20223;-93
2023/09/26 06:25:24;;;;;;;3.22;2.92;;;;;;;;;;5117788;27;20642;-93
2023/09/26 06:27:52;;;;;;;3.10;2.80;;;;;;;;;;5117275;28;20306;-92
2023/09/26 06:30:21;;;;;;;4.57;3.08;;;;;;;;;;5116931;27;20311;-93
2023/09/26 06:32:49;;;;;;;3.78;3.47;;;;;;;;;;5117390;27;20278;-93
2023/09/26 06:35:16;;;;;;;2.60;2.40;;;;;;;;;;5117148;27;20223;-93
2023/09/26 06:37:44;;;;;;;3.05;2.85;;;;;;;;;;5117188;27;20282;-91
2023/09/26 06:40:12;;;;;;;2.95;2.70;;;;;;;;;;5117225;28;20219;-93
2023/09/26 06:42:40;;;;;;;3.30;3.00;;;;;;;;;;5116720;28;20291;-92
2023/09/26 06:45:10;;;;;;;4.45;2.83;;;;;;;;;;5117283;28;20282;-92
2023/09/26 06:47:39;;;;;;;3.17;2.88;;;;;;;;;;5117194;28;20600;-92
2023/09/26 06:50:10;;;;;;;2.78;2.55;;;;;;;;;;5117556;28;20736;-93
2023/09/26 06:52:37;;;;;;;3.42;3.13;;;;;;;;;;5116575;28;20260;-92
2023/09/26 06:55:09;;;;;;;2.60;2.40;;;;;;;;;;5116600;28;20282;-91
2023/09/26 06:57:37;;;;;;;3.55;3.25;;;;;;;;;;5117046;28;20225;-92
2023/09/26 07:00:12;;;;;;;2.97;2.78;;;;;;;;;;5120663;28;20211;-92
2023/09/26 07:02:41;;;;;;;2.50;2.30;;;;;;;;;;5120923;28;20195;-91
2023/09/26 07:05:09;;;;;;;2.30;2.10;;;;;;;;;;5116309;28;20199;-92
2023/09/26 07:07:37;;;;;;;3.97;3.67;;;;;;;;;;5116701;28;20306;-92
2023/09/26 07:10:07;;;;;;;3.45;3.05;;;;;;;;;;5117541;28;20254;-91
2023/09/26 07:12:34;;;;;;;2.97;2.55;;;;;;;;;;5123281;28;20623;-92
2023/09/26 07:15:02;;;;;;;4.20;3.88;;;;;;;;;;5117460;28;20713;-92
2023/09/26 07:17:29;;;;;;;4.10;3.17;;;;;;;;;;5117341;28;20196;-92
2023/09/26 07:20:01;;;;;;;2.80;2.60;;;;;;;;;;5116630;28;20311;-91
2023/09/26 07:22:29;;;;;;;2.80;2.60;;;;;;;;;;5117077;28;20198;-92
2023/09/26 07:24:57;;;;;;;3.80;3.50;;;;;;;;;;5117820;28;20282;-91
2023/09/26 07:27:24;;;;;;;3.83;3.58;;;;;;;;;;5117635;28;20200;-93
2023/09/26 07:29:52;;;;;;;4.75;4.35;;;;;;;;;;5117010;28;20239;-92
2023/09/26 07:32:20;;;;;;;4.03;3.63;;;;;;;;;;5117287;28;20278;-92
2023/09/26 07:34:48;;;;;;;3.00;2.80;;;;;;;;;;5116593;28;20622;-92
2023/09/26 07:37:17;;;;;;;2.47;2.30;;;;;;;;;;5116329;28;20226;-92
2023/09/26 07:39:49;;;;;;;3.30;3.10;;;;;;;;;;5116184;28;20219;-92
2023/09/26 07:42:16;;;;;;;2.97;2.78;;;;;;;;;;5116456;28;20290;-91
2023/09/26 07:44:44;;;;;;;3.53;3.22;;;;;;;;;;5116203;28;20206;-91
2023/09/26 07:47:11;;;;;;;3.08;2.88;;;;;;;;;;5115450;28;20279;-92
2023/09/26 07:49:40;;;;;;;2.55;2.35;;;;;;;;;;5115708;28;20216;-91
2023/09/26 07:52:07;;;;;;;3.35;3.05;;;;;;;;;;5116066;28;20195;-91
2023/09/26 07:54:36;;;;;;;3.13;2.92;;;;;;;;;;5114947;27;20744;-92
2023/09/26 07:57:04;;;;;;;1.98;1.88;;;;;;;;;;5115764;28;20282;-91
2023/09/26 07:59:32;;;;;;;2.35;2.15;;;;;;;;;;5115462;27;20304;-91
2023/09/26 08:01:59;;;;;;;2.50;2.30;;;;;;;;;;5116004;28;20206;-91
2023/09/26 08:04:27;;;;;;;4.40;4.07;;;;;;;;;;5114955;28;20286;-92
2023/09/26 08:06:54;;;;;;;3.50;3.20;;;;;;;;;;5114769;28;20658;-92
2023/09/26 08:09:22;;;;;;;3.50;3.20;;;;;;;;;;5114874;28;20232;-91
2023/09/26 08:11:51;;;;;;;3.47;3.28;;;;;;;;;;5114540;28;20257;-90
2023/09/26 08:14:19;;;;;;;4.70;4.30;;;;;;;;;;5115414;27;20282;-91
2023/09/26 08:16:47;;;;;;;6.90;4.50;;;;;;;;;;5115768;27;20282;-93
2023/09/26 08:19:15;;;;;;;5.50;5.00;;;;;;;;;;5116730;27;20714;-92
2023/09/26 08:21:44;;;;;;;4.50;4.10;;;;;;;;;;5115167;28;20203;-91
2023/09/26 08:24:12;;;;;;;4.70;4.28;;;;;;;;;;5118704;28;20202;-92
2023/09/26 08:26:39;;;;;;;5.68;4.88;;;;;;;;;;5115662;28;20234;-91
2023/09/26 08:29:08;;;;;;;4.55;4.07;;;;;;;;;;5114877;28;20307;-91
2023/09/26 08:31:36;;;;;;;4.43;4.03;;;;;;;;;;5114503;28;20673;-91
2023/09/26 08:34:04;;;;;;;4.55;4.15;;;;;;;;;;5114676;28;20214;-92
2023/09/26 08:36:32;;;;;;;4.57;3.70;;;;;;;;;;5114615;27;20203;-91
2023/09/26 08:38:59;;;;;;;4.05;3.72;;;;;;;;;;5113516;27;20281;-90
2023/09/26 08:41:29;;;;;;;3.00;2.67;;;;;;;;;;5114428;27;20199;-91
2023/09/26 08:43:56;;;;;;;3.75;2.83;;;;;;;;;;5114656;27;20290;-90
2023/09/26 08:46:26;;;;;;;3.83;3.28;;;;;;;;;;5117293;28;20578;-90
2023/09/26 08:48:56;;;;;;;5.70;4.00;;;;;;;;;;5139001;28;20235;-88
2023/09/26 08:51:24;;;;;;;3.72;3.30;;;;;;;;;;5139296;28;20203;-88
2023/09/26 08:53:52;;;;;;;4.63;4.22;;;;;;;;;;5139798;28;20203;-89
2023/09/26 08:56:20;;;;;;;4.40;4.00;;;;;;;;;;5127194;28;20196;-91
2023/09/26 08:58:50;;;;;;;5.43;4.70;;;;;;;;;;5115559;28;20226;-91
2023/09/26 09:01:19;;;;;;;4.55;4.15;;;;;;;;;;5116061;28;20199;-92
2023/09/26 09:03:48;;;;;;;5.10;3.83;;;;;;;;;;5116125;28;20203;-91
2023/09/26 09:06:16;;;;;;;4.80;4.40;;;;;;;;;;5115355;28;20242;-92
2023/09/26 09:08:44;;;;;;;3.50;3.20;;;;;;;;;;5114396;28;20224;-91
2023/09/26 09:11:12;;;;;;;4.95;2.97;;;;;;;;;;5114358;28;20198;-92
2023/09/26 09:13:42;;;;;;;4.05;2.80;;;;;;;;;;5114508;28;20208;-92
2023/09/26 09:16:13;;;;;;;4.05;3.65;;;;;;;;;;5114772;28;20203;-91
2023/09/26 09:18:43;;;;;;;4.03;3.67;;;;;;;;;;5114295;28;20299;-91
2023/09/26 09:21:27;;;;;;;3.85;3.47;;;;;;;;;;5114719;28;20199;-92
2023/09/26 09:23:57;;;;;;;4.05;3.65;;;;;;;;;;5115361;28;20207;-91
2023/09/26 09:26:26;;;;;;;3.17;2.92;;;;;;;;;;5116392;28;20284;-93
2023/09/26 09:28:55;;;;;;;3.10;2.80;;;;;;;;;;5115110;28;20230;-92
2023/09/26 09:31:23;;;;;;;3.30;3.10;;;;;;;;;;5114901;28;20569;-92
2023/09/26 09:33:55;;;;;;;3.88;3.38;;;;;;;;;;5114305;28;20199;-92
2023/09/26 09:36:24;;;;;;;4.25;3.85;;;;;;;;;;5115585;28;20196;-92
2023/09/26 09:38:52;;;;;;;3.67;3.38;;;;;;;;;;5114034;28;20325;-92
2023/09/26 09:41:20;;;;;;;2.55;2.38;;;;;;;;;;5115131;28;20222;-91
2023/09/26 09:43:48;;;;;;;2.53;2.33;;;;;;;;;;5114470;28;20195;-92
2023/09/26 09:46:18;;;;;;;2.67;2.47;;;;;;;;;;5114963;28;20275;-92
2023/09/26 09:48:47;;;;;;;3.30;2.50;;;;;;;;;;5114542;28;20314;-92
2023/09/26 09:51:16;;;;;;;2.50;2.30;;;;;;;;;;5113455;28;20200;-93
2023/09/26 09:53:55;;;;;;;4.25;2.85;;;;;;;;;;5114611;28;20195;-93
2023/09/26 09:56:24;;;;;;;2.40;2.20;;;;;;;;;;5115148;28;20205;-92
2023/09/26 09:58:54;;;;;;;3.80;2.92;;;;;;;;;;5114754;28;20236;-91
2023/09/26 10:01:22;;;;;;;3.83;3.15;;;;;;;;;;5115410;28;20311;-92
2023/09/26 10:03:50;;;;;;;2.72;2.35;;;;;;;;;;5115572;28;20229;-92
2023/09/26 10:06:18;;;;;;;2.60;2.42;;;;;;;;;;5116571;28;20207;-92
2023/09/26 10:08:50;;;;;;;2.00;1.90;;;;;;;;;;5114847;28;20223;-92
2023/09/26 10:11:19;;;;;;;1.90;1.80;;;;;;;;;;5114712;28;20279;-92
2023/09/26 10:13:47;;;;;;;2.60;2.40;;;;;;;;;;5114982;27;20196;-92
2023/09/26 10:16:17;;;;;;;1.75;1.65;;;;;;;;;;5114534;28;20206;-93
2023/09/26 10:18:47;;;;;;;2.55;2.35;;;;;;;;;;5114479;28;20239;-92
2023/09/26 10:21:25;;;;;;;1.80;1.70;;;;;;;;;;5114299;27;20226;-92
2023/09/26 10:24:29;;;;;;;2.95;1.70;;;;;;;;;;5114236;27;20214;-91
2023/09/26 10:27:06;;;;;;;2.28;2.15;;;;;;;;;;5103991;27;20211;-92
2023/09/26 10:29:35;;;;;;;2.53;2.33;;;;;;;;;;5118590;27;20223;-92
2023/09/26 10:32:07;;;;;;;2.42;2.22;;;;;;;;;;5115725;27;20631;-92
2023/09/26 10:34:36;;;;;;;2.58;2.30;;;;;;;;;;5116230;27;20282;-92
2023/09/26 10:37:08;;;;;;;1.50;1.40;;;;;;;;;;5114639;28;20282;-92
2023/09/26 10:39:40;;;;;;;1.40;1.30;;;;;;;;;;5113959;28;20233;-93
2023/09/26 10:42:12;;;;;;;1.25;1.25;;;;;;;;;;5129448;22;20236;-92
2023/09/26 10:44:40;;;;;;;1.98;1.83;;;;;;;;;;5049365;28;20199;-92
2023/09/26 10:47:08;;;;;;;1.95;1.83;;;;;;;;;;5053105;28;20208;-92
2023/09/26 10:49:36;;;;;;;4.47;2.17;;;;;;;;;;5043451;28;20229;-94
2023/09/26 10:52:04;;;;;;;1.60;1.50;;;;;;;;;;5061648;28;20212;-91
2023/09/26 10:54:33;;;;;;;1.60;1.50;;;;;;;;;;5051139;28;20289;-92
2023/09/26 10:57:03;;;;;;;1.58;1.50;;;;;;;;;;5055224;28;20555;-91
2023/09/26 10:59:31;;;;;;;2.08;1.63;;;;;;;;;;5054139;28;20277;-92
2023/09/26 11:01:59;;;;;;;2.35;1.92;;;;;;;;;;5061684;28;20288;-91
2023/09/26 11:04:28;;;;;;;2.25;1.88;;;;;;;;;;5060467;28;20258;-91
2023/09/26 11:06:57;;;;;;;2.53;1.90;;;;;;;;;;5080399;28;20192;-90
2023/09/26 11:09:25;;;;;;;1.60;1.50;;;;;;;;;;5080380;28;20239;-89
2023/09/26 11:11:55;;;;;;;1.60;1.50;;;;;;;;;;5088542;28;20228;-90
2023/09/26 11:14:24;;;;;;;1.70;1.60;;;;;;;;;;5080467;28;20257;-89
2023/09/26 11:16:52;;;;;;;1.55;1.30;;;;;;;;;;5080635;28;20225;-88
2023/09/26 11:19:20;;;;;;;1.20;1.20;;;;;;;;;;5080253;28;20270;-91
2023/09/26 11:21:49;;;;;;;2.75;1.70;;;;;;;;;;5080168;28;20182;-91
2023/09/26 11:24:21;;;;;;;1.67;1.58;;;;;;;;;;5080384;28;20216;-90
2023/09/26 11:26:50;;;;;;;1.65;1.55;;;;;;;;;;5080341;28;20192;-91
2023/09/26 11:29:19;;;;;;;1.63;1.52;;;;;;;;;;5079913;28;20205;-91
2023/09/26 11:31:48;;;;;;;1.73;1.63;;;;;;;;;;5080138;28;20198;-90
2023/09/26 11:34:18;;;;;;;1.20;1.20;;;;;;;;;;5080131;28;20198;-90
2023/09/26 11:36:46;;;;;;;2.22;1.80;;;;;;;;;;5079943;28;20196;-90
2023/09/26 11:39:19;;;;;;;1.45;1.35;;;;;;;;;;5079638;28;20202;-92
2023/09/26 11:41:47;;;;;;;2.33;1.60;;;;;;;;;;5079773;28;20197;-91
2023/09/26 11:44:16;;;;;;;1.10;1.10;;;;;;;;;;5079798;28;20205;-90
2023/09/26 11:46:49;;;;;;;1.30;1.20;;;;;;;;;;5079939;28;20205;-90
2023/09/26 11:49:19;;;;;;;1.27;1.17;;;;;;;;;;5079638;28;20317;-90
2023/09/26 11:51:49;;;;;;;1.52;1.42;;;;;;;;;;5079540;28;20229;-89
2023/09/26 11:54:17;;;;;;;1.30;1.30;;;;;;;;;;5079755;28;20213;-89
2023/09/26 11:56:45;;;;;;;2.00;1.90;;;;;;;;;;5079760;28;20181;-89
2023/09/26 11:59:13;;;;;;;1.98;1.67;;;;;;;;;;5079370;28;20519;-90
2023/09/26 12:01:42;;;;;;;1.48;1.38;;;;;;;;;;5079457;28;20181;-90
2023/09/26 12:04:13;;;;;;;1.20;1.20;;;;;;;;;;5079252;28;20209;-91
2023/09/26 12:06:41;;;;;;;1.80;1.60;;;;;;;;;;5079537;28;20182;-89
2023/09/26 12:09:11;;;;;;;1.10;1.10;;;;;;;;;;5079300;28;20228;-90
2023/09/26 12:11:39;;;;;;;1.52;1.30;;;;;;;;;;5079218;28;20209;-90
2023/09/26 12:14:06;;;;;;;1.88;1.77;;;;;;;;;;5078263;28;20201;-90
2023/09/26 12:16:34;;;;;;;1.20;1.20;;;;;;;;;;5070557;28;20205;-93
2023/09/26 12:19:01;;;;;;;1.90;1.60;;;;;;;;;;5063906;28;20241;-92
2023/09/26 12:21:30;;;;;;;1.40;1.30;;;;;;;;;;5065990;28;20558;-94
2023/09/26 12:23:58;;;;;;;2.05;1.92;;;;;;;;;;5068218;28;20229;-92
2023/09/26 12:26:25;;;;;;;1.95;1.70;;;;;;;;;;5070349;28;20205;-93
2023/09/26 12:28:53;;;;;;;1.50;1.40;;;;;;;;;;5067207;28;20290;-93
2023/09/26 12:31:20;;;;;;;1.77;1.67;;;;;;;;;;5065080;28;20245;-93
2023/09/26 12:33:48;;;;;;;1.67;1.58;;;;;;;;;;5065212;28;20202;-92
2023/09/26 12:36:16;;;;;;;1.70;1.60;;;;;;;;;;5066131;28;20213;-92
2023/09/26 12:38:44;;;;;;;1.60;1.50;;;;;;;;;;5064267;28;20702;-94
2023/09/26 12:41:12;;;;;;;2.00;1.33;;;;;;;;;;5066644;28;20229;-92
2023/09/26 12:43:40;;;;;;;1.60;1.50;;;;;;;;;;5067149;28;20213;-93
2023/09/26 12:46:08;;;;;;;1.48;1.38;;;;;;;;;;5064693;28;20206;-93
2023/09/26 12:48:36;;;;;;;1.80;1.70;;;;;;;;;;5067086;28;20249;-93
2023/09/26 12:51:03;;;;;;;1.52;1.42;;;;;;;;;;5068006;28;20232;-93
2023/09/26 12:53:31;;;;;;;1.83;1.60;;;;;;;;;;5068459;28;20566;-93
2023/09/26 12:56:00;;;;;;;1.48;1.38;;;;;;;;;;5068038;28;20204;-93
2023/09/26 12:58:28;;;;;;;1.85;1.50;;;;;;;;;;5067420;28;20229;-93
2023/09/26 13:00:55;;;;;;;1.80;1.70;;;;;;;;;;5066890;28;20218;-93
2023/09/26 13:03:23;;;;;;;1.70;1.60;;;;;;;;;;5063613;28;20229;-93
2023/09/26 13:05:50;;;;;;;1.50;1.40;;;;;;;;;;5068187;28;20218;-91
2023/09/26 13:08:18;;;;;;;2.60;1.98;;;;;;;;;;5071262;28;20213;-93
2023/09/26 13:10:46;;;;;;;1.48;1.38;;;;;;;;;;5071486;28;20197;-92
2023/09/26 13:13:14;;;;;;;1.50;1.40;;;;;;;;;;5076589;28;20209;-90
2023/09/26 13:15:42;;;;;;;1.60;1.50;;;;;;;;;;5071976;28;20213;-92
2023/09/26 13:18:10;;;;;;;2.28;1.90;;;;;;;;;;5075334;28;20205;-91
2023/09/26 13:20:38;;;;;;;1.80;1.58;;;;;;;;;;5075492;28;20257;-92
2023/09/26 13:23:06;;;;;;;1.90;1.80;;;;;;;;;;5068154;28;20209;-92
2023/09/26 13:25:33;;;;;;;1.83;1.73;;;;;;;;;;5067910;28;20268;-91
2023/09/26 13:28:01;;;;;;;1.60;1.35;;;;;;;;;;5077006;28;20190;-92
2023/09/26 13:30:30;;;;;;;1.40;1.40;;;;;;;;;;5076706;28;20236;-91
2023/09/26 13:32:58;;;;;;;1.50;1.40;;;;;;;;;;5077002;28;20290;-92
2023/09/26 13:35:27;;;;;;;1.50;1.40;;;;;;;;;;5068646;28;20225;-92
2023/09/26 13:37:55;;;;;;;1.60;1.50;;;;;;;;;;5066423;28;20297;-93
2023/09/26 13:40:23;;;;;;;1.27;1.17;;;;;;;;;;5066577;28;20285;-93
2023/09/26 13:42:50;;;;;;;1.67;1.58;;;;;;;;;;5059313;28;20240;-92
2023/09/26 13:45:18;;;;;;;1.80;1.70;;;;;;;;;;5065892;28;20225;-92
2023/09/26 13:47:47;;;;;;;3.05;2.38;;;;;;;;;;5065705;28;20603;-92
2023/09/26 13:50:15;;;;;;;1.77;1.67;;;;;;;;;;5066701;28;20718;-92
2023/09/26 13:52:42;;;;;;;1.75;1.65;;;;;;;;;;5065751;28;20244;-93
2023/09/26 13:55:11;;;;;;;1.70;1.60;;;;;;;;;;5063452;28;20225;-93
2023/09/26 13:57:39;;;;;;;1.55;1.45;;;;;;;;;;5060981;28;20205;-91
2023/09/26 14:00:09;;;;;;;1.40;1.30;;;;;;;;;;5061149;28;20301;-94
2023/09/26 14:02:36;;;;;;;1.95;1.55;;;;;;;;;;5062147;28;20204;-95
2023/09/26 14:05:06;;;;;;;1.80;1.70;;;;;;;;;;5067131;28;20198;-93
2023/09/26 14:07:34;;;;;;;2.03;1.92;;;;;;;;;;5063874;28;20224;-92
2023/09/26 14:10:01;;;;;;;1.65;1.55;;;;;;;;;;5067941;28;20312;-92
2023/09/26 14:12:29;;;;;;;1.33;1.23;;;;;;;;;;5069666;28;20240;-92
2023/09/26 14:14:57;;;;;;;1.40;1.25;;;;;;;;;;5071115;28;20257;-91
2023/09/26 14:17:25;;;;;;;1.83;1.73;;;;;;;;;;5071689;28;20186;-93
2023/09/26 14:19:52;;;;;;;1.50;1.40;;;;;;;;;;5069531;28;20229;-93
2023/09/26 14:22:21;;;;;;;1.23;1.20;;;;;;;;;;5066363;28;20225;-92
2023/09/26 14:24:49;;;;;;;1.00;1.00;;;;;;;;;;5065851;28;20222;-93
2023/09/26 14:27:17;;;;;;;1.30;1.20;;;;;;;;;;5063876;28;20201;-92
2023/09/26 14:29:44;;;;;;;0.82;0.82;;;;;;;;;;5064212;28;20213;-93
2023/09/26 14:32:12;;;;;;;1.20;1.10;;;;;;;;;;5069293;28;20248;-93
2023/09/26 14:34:39;;;;;;;1.40;1.30;;;;;;;;;;5064757;28;20218;-92
2023/09/26 14:37:07;;;;;;;1.15;1.10;;;;;;;;;;5064304;28;20661;-93
2023/09/26 14:39:36;;;;;;;0.85;0.85;;;;;;;;;;5067387;28;20233;-93
2023/09/26 14:42:04;;;;;;;1.05;1.05;;;;;;;;;;5069317;28;20288;-93
2023/09/26 14:44:32;;;;;;;1.05;1.05;;;;;;;;;;5071607;28;20225;-93
2023/09/26 14:46:59;;;;;;;1.55;1.45;;;;;;;;;;5071919;28;20209;-93
2023/09/26 14:49:28;;;;;;;1.10;1.10;;;;;;;;;;5075656;28;20222;-93
2023/09/26 14:51:55;;;;;;;1.52;1.10;;;;;;;;;;5073874;28;20201;-94
2023/09/26 14:54:23;;;;;;;0.95;0.95;;;;;;;;;;5074471;28;20205;-93